logo
Rechercher aéroport 
image banner adimage banner adimage banner ad
image banner ad

KVBG - Vandenberg Afb

Situé à Lompoc, United States

ICAO - VBG, IATA - VBG

Données fournies par Airmate  

Information générale

Coordonnées: N34°44'14" W120°35'4"
Élévation : 368 feet MSL.
Variation magnétique : 12° East
Voir autres Aéroports à California

Données opérationnelles

Special qualification required
Heure actuelle UTC:
Heure actuelle locale:
Météo
METAR: KVBG 281211Z AUTO 00000KT 8SM OVC002 13/13 A2995 RMK AO2 SLP144 FZRANO TSNO $
TAF: TAF KVBG 272200Z 2722/2904 33010G15KT 9999 SCT006 SCT150 QNH2992INS BECMG 2723/2724 34010G15KT 9999 OVC005 QNH2990INS BECMG 2801/2802 35009KT 6000 BR OVC003 QNH2993INS BECMG 2803/2804 VRB06KT 1600 BR OVC002 QNH2995INS BECMG 2808/2809 VRB06KT 0400 FG VV001 QNH2997INS BECMG 2816/2817 35009KT 4800 BR OVC003 QNH3000INS BECMG 2817/2818 34012KT 9999 NSW BKN005 QNH3002INS BECMG 2819/2820 33012G18KT 9999 SCT006 SCT250 QNH2999INS BECMG 2900/2902 33009KT 6000 BR BKN006 QNH2997INS TX20/2722Z TN13/2814Z LAST NO AMDS AFT 2800 NEXT 2814
Voir NOTAMs / SUP AIP / TFR affectant cet aéroport [VIEW]
Fréquences de communication: [VIEW]

Pistes:

Identifiant RWYQFULongueur (ft)Largeur (ft)SurfaceLDA (ft)
12137°15000200CONC
30317°15000200CONC

Coordonnées de l'aéroport

Adresse: Lompoc United States

Vue satellite de KVBG